Anton Buialskyi

Scout - Dynamo Kyiv
5 Dez 2027
Sonntag
Verarbeitung

Persönlichkeit

Anpassungsfähigkeit (1) Ehrgeiz (14) Kontroverse (6) Loyalität (18) Druck (7) Professionalität (19) Fairness (19) Temperament (15)

Profil

Trainerstil Demokratisch
Lizenz Kontinentale B
Entschlossenheit 12
Menschenführung 9
Motivation 11
Disziplin 14
Arbeitszufriedenheit
100%
Ermüdung
0%
Rolle Scout
Gehalt 49.4K p/W
Vertrag 14.03.2029

Leistung

Verhalten Gut
Trainingseffektivität
58%
Spielerentwicklung
45%
Verletzungsprävention
30%
Taktische Umsetzung
55%

Letzte Ereignisse

Nahm an einer Scouting-Besprechung teil jetzt
Nahm an einer Scouting-Besprechung teil 7T her
Empfahl ein Transferziel 7T her
Spiel beobachtet 7T her
Nahm an einer Scouting-Besprechung teil 14T her
Empfahl ein Transferziel 14T her
Spiel beobachtet 14T her
Spiel beobachtet 21T her

Aktuell beobachtet

73
Spieler Verein Status Fähigkeit Vertrauen Beobachtet Zuletzt beobachtet Letzte Stimme
Artem Somka Feniks Aktiv 100 / 105 52% 1 / 1m 03.11.2027 -
Daniil Zelinskyi Metalurh Zaporizhzhia Aktiv 88 / 91 52% 1 / 1m 03.11.2027 -
Artem Sitalo Metalurh Zaporizhzhia Aktiv 80 / 80 30% 1 / 1m 03.11.2027 -
Ermir Rashica Metalist Aktiv 113 / 125 93% 1 06.09.2027 Befürworten
Rostyslav Rusyn Feniks Aktiv 95 / 95 42% 1 / 1m 25.08.2027 -
Enoch Dzeble Podillia Aktiv 84 / 89 30% 1 / 1m 25.08.2027 -
Maksym Uhryniuk Nyva Aktiv 92 / 97 42% 1 / 1m 25.08.2027 -
Marko Kytsun Nyva Aktiv 84 / 87 30% 1 / 1m 25.08.2027 -
Thiago Yfran Inhulets Aktiv 91 / 96 42% 1 / 1m 25.08.2027 -
Artem Shabanov Metalist Verloren 108 / 113 93% 1 02.08.2027 -
Christ Inao Oulaï Fiorentina Aktiv 136 / 151 40% 1 13.06.2027 -
Oscar Al-Taawoun Aktiv 147 / 155 40% 1 13.06.2027 -
Bobby Thomas Coventry City Aktiv 135 / 122 40% 1 24.01.2027 -
Gustavo Hamer Sheffield United Aktiv 134 / 122 40% 1 24.01.2027 -
Cheick Doucouré Crystal Palace Aktiv 145 / 147 40% 1 24.01.2027 -
Mykola Kukharevych Slovan Bratislava Aktiv 120 / 128 40% 7 20.01.2027 -
Malik Mothersille Stockport County Aktiv 114 / 121 40% 2 20.01.2027 -
Yousef Salech Cardiff City Aktiv 127 / 123 40% 1 20.01.2027 -
Bradley Fink Wycombe Wanderers Aktiv 107 / 106 40% 1 17.01.2027 -
Ilyas Ansah Hull City Aktiv 130 / 140 40% 1 17.01.2027 -
Yaroslav Karabin Karpaty Aktiv 110 / 101 40% 8 15.01.2027 -
Patrick Addo Great Olympics Aktiv 105 / 97 40% 6 15.01.2027 -
Žan Vipotnik Swansea City Aktiv 128 / 116 40% 1 15.01.2027 -
Armstrong Oko-Flex Levski Aktiv 119 / 127 40% 3 14.01.2027 -
Mykola Haiduchyk Polissia Aktiv 109 / 108 40% 4 13.01.2027 -
Ihor Krasnopir Polissia Aktiv 115 / 119 40% 6 13.01.2027 -
Daniil Sukhoruchko Bekescsaba Aktiv 95 / 103 40% 7 12.01.2027 -
Carlos Paraco Metalist Aktiv 113 / 124 40% 7 11.01.2027 Beobachten
Kyle Joseph Middlesbrough Aktiv 115 / 110 40% 1 09.01.2027 -
Kostiantyn Bychek Kudrivka Aktiv 96 / 95 40% 2 06.01.2027 -
Thamsanqa Dolly Free State Stars Aktiv 111 / 97 40% 1 31.12.2026 -
Danylo Kravchuk LNZ Aktiv 100 / 104 40% 9 29.12.2026 -
Vasyl Lutsiv Metalist Aktiv 81 / 73 40% 3 29.12.2026 -
Maksym Voitikhovskyi Bukovyna Aktiv 97 / 106 40% 4 21.12.2026 -
Artem Liehostaiev Kudrivka Aktiv 92 / 89 40% 4 20.12.2026 -
Bohdan Mohylnyi Inhulets Aktiv 91 / 84 40% 1 20.12.2026 -
Wesley Pomba Kolos Aktiv 113 / 103 40% 4 19.12.2026 -
Ammar Ramadan DAC Dunajska Streda Aktiv 127 / 119 40% 1 19.12.2026 -
Mark Assinor Oleksandriya Aktiv 106 / 106 40% 8 16.12.2026 -
Brayan León Mamelodi Sundowns Aktiv 115 / 105 40% 3 12.12.2026 -
Matej Trusa DAC Dunajska Streda Aktiv 118 / 103 40% 3 12.12.2026 -
Papa Ndiaga Yade Oleksandriya Aktiv 107 / 100 40% 7 06.12.2026 -
Petter Nosa Dahl Rapid Wien Aktiv 125 / 114 40% 3 22.11.2026 -
Ivan Bendera Epicentr Aktiv 88 / 87 40% 3 06.11.2026 -
Kelvin Yeboah Minnesota United FC Aktiv 130 / 117 40% 1 06.11.2026 -
Jesus Ferreira Seattle Sounders Aktiv 126 / 139 40% 3 04.11.2026 -
Nazarii Nych Ahrobiznes Aktiv 92 / 92 42% 1 / 1m 04.11.2026 -
Ramik Hadzhyiev Livyi Bereh Aktiv 105 / 110 52% 1 / 1m 04.11.2026 -
Soumaïla Bakayoko Egnatia Rrogozhinë Aktiv 98 / 98 30% 1 / 1m 04.11.2026 -
Musa Barrow Al-Khaleej Aktiv 136 / 128 40% 2 01.11.2026 -
Rafael Navarro St. Louis CITY SC Aktiv 125 / 137 40% 1 28.10.2026 -
Talles Magno New York City Aktiv 133 / 146 40% 2 27.10.2026 -
Tomás Chancalay Minnesota United FC Aktiv 125 / 123 40% 1 24.10.2026 -
Bongokuhle Hlongwane Minnesota United FC Aktiv 130 / 135 40% 1 12.10.2026 -
Wessam Abou Ali Columbus Crew Aktiv 131 / 134 40% 1 11.10.2026 -
Roman Paparyga Qizilqum Aktiv 98 / 97 40% 2 05.10.2026 -
Nazariy Rusyn Karpaty Aktiv 104 / 106 40% 1 05.10.2026 -
Carlos Rojas Epicentr Aktiv 94 / 97 40% 1 01.10.2026 -
Ardit Tahiri Kolos Aktiv 101 / 107 40% 1 23.09.2026 -
Denys Ustymenko Obolon Aktiv 96 / 86 40% 2 22.09.2026 -
Yehor Kondratiuk Kokand 1912 Aktiv 99 / 98 40% 1 17.09.2026 -
Yevhenii Pastukh LNZ Aktiv 104 / 115 40% 1 09.09.2026 -
Andrei Dragusin Astra Aktiv 129 / 123 40% 1 09.09.2026 -
Serhii Kyslenko Inhulets Aktiv 96 / 96 30% 1 / 1m 26.08.2026 -
Andrii Borovskyi Ahrobiznes Aktiv 78 / 81 42% 1 / 1m 26.08.2026 -
Dzhilindo Bezhubchenko Chernihiv Aktiv 78 / 81 42% 1 / 1m 26.08.2026 -
Vitaliy Mykhayliv Nyva Aktiv 89 / 94 42% 1 / 1m 26.08.2026 -
Allan Saint-Maximin Charlotte Football Club Aktiv 143 / 134 40% 2 20.08.2026 -
Elías Báez Atlanta United FC Aktiv 112 / 138 40% 1 20.08.2026 -
Malcom Al Jazira Aktiv 154 / 145 40% 1 20.08.2026 -
Veljko Birmančević Ferencvaros Aktiv 134 / 128 40% 1 17.08.2026 -
Ethan Ampadu Leeds United Aktiv 138 / 149 40% 1 02.08.2026 -
Fran García Betis Aktiv 149 / 153 40% 1 01.08.2026 -